createdAt,value
2022-10-19T00:01:22.789Z,1.83
2022-10-19T00:03:52.683Z,1.83
2022-10-19T00:06:25.819Z,1.60
2022-10-19T00:09:18.013Z,1.60
2022-10-19T00:11:49.416Z,1.97
2022-10-19T00:14:20.686Z,1.77
2022-10-19T00:16:49.430Z,2.10
2022-10-19T00:19:19.795Z,2.03
2022-10-19T00:21:47.940Z,2.10
2022-10-19T00:24:15.988Z,2.07
2022-10-19T00:26:42.847Z,2.53
2022-10-19T00:29:12.868Z,1.90
2022-10-19T00:31:40.039Z,2.00
2022-10-19T00:34:07.114Z,1.70
2022-10-19T00:36:36.569Z,2.10
2022-10-19T00:39:05.599Z,2.03
2022-10-19T00:41:35.894Z,1.80
2022-10-19T00:44:16.686Z,2.30
2022-10-19T00:46:46.695Z,1.93
2022-10-19T00:49:20.068Z,2.40
2022-10-19T00:51:57.258Z,2.03
2022-10-19T00:54:29.689Z,2.23
2022-10-19T00:57:01.566Z,2.40
2022-10-19T00:59:31.789Z,2.17
2022-10-19T01:01:59.417Z,2.47
2022-10-19T01:04:27.506Z,2.40
2022-10-19T01:06:55.021Z,2.40
2022-10-19T01:09:21.761Z,2.40
2022-10-19T01:12:15.489Z,2.40
2022-10-19T01:15:06.328Z,2.50
2022-10-19T01:17:45.367Z,2.30
2022-10-19T01:20:49.514Z,2.30
2022-10-19T01:23:34.364Z,2.50
2022-10-19T01:26:07.116Z,2.20
2022-10-19T01:28:39.942Z,2.30
2022-10-19T01:31:25.788Z,2.33
2022-10-19T01:34:03.452Z,2.30
2022-10-19T01:36:41.823Z,3.37
2022-10-19T01:39:16.111Z,1.80
2022-10-19T01:42:04.356Z,1.93
2022-10-19T01:44:41.375Z,2.37
2022-10-19T01:47:15.874Z,2.63
2022-10-19T01:49:52.527Z,3.83
2022-10-19T01:52:22.279Z,5.10
2022-10-19T01:54:56.227Z,4.67
2022-10-19T01:57:34.930Z,4.47
2022-10-19T02:00:07.561Z,2.97
2022-10-19T02:02:37.947Z,3.77
2022-10-19T02:05:07.461Z,3.27
2022-10-19T02:07:35.294Z,2.87
2022-10-19T02:10:02.133Z,2.50
2022-10-19T02:12:30.308Z,2.97
2022-10-19T02:15:02.143Z,2.70
2022-10-19T02:17:38.007Z,3.47
2022-10-19T02:20:05.534Z,2.37
2022-10-19T02:22:32.654Z,1.60
2022-10-19T02:25:00.676Z,1.70
2022-10-19T02:27:27.815Z,2.07
2022-10-19T02:29:54.822Z,1.97
2022-10-19T02:32:21.815Z,2.60
2022-10-19T02:34:48.954Z,2.20
2022-10-19T02:37:15.759Z,3.07
2022-10-19T02:39:42.706Z,2.43
2022-10-19T02:42:20.557Z,4.27
2022-10-19T02:44:58.034Z,3.90
2022-10-19T02:47:42.281Z,2.80
2022-10-19T02:50:11.326Z,2.93
2022-10-19T02:52:43.222Z,3.17
2022-10-19T02:55:10.298Z,2.93
2022-10-19T02:57:37.626Z,6.03
2022-10-19T03:00:07.315Z,2.90
2022-10-19T03:02:34.408Z,3.37
2022-10-19T03:05:01.173Z,3.17
2022-10-19T03:07:28.122Z,3.57
2022-10-19T03:09:54.802Z,5.47
2022-10-19T03:12:21.775Z,3.63
2022-10-19T03:14:48.575Z,4.13
2022-10-19T03:17:15.337Z,2.87
2022-10-19T03:19:42.380Z,3.30
2022-10-19T03:22:09.120Z,2.43
2022-10-19T03:24:36.174Z,2.40
2022-10-19T03:27:03.251Z,2.93
2022-10-19T03:29:30.042Z,4.33
2022-10-19T03:31:56.787Z,2.80
2022-10-19T03:34:23.885Z,3.80
2022-10-19T03:36:50.720Z,3.60
2022-10-19T03:39:17.883Z,4.03
2022-10-19T03:41:45.156Z,3.63
2022-10-19T03:44:12.414Z,3.73
2022-10-19T03:46:40.317Z,3.70
2022-10-19T03:49:07.995Z,3.57
2022-10-19T03:51:35.732Z,3.57
2022-10-19T03:54:06.780Z,3.67
2022-10-19T03:56:35.638Z,3.80
2022-10-19T03:59:04.643Z,6.20
2022-10-19T04:01:35.264Z,5.43
2022-10-19T04:04:04.707Z,5.03
2022-10-19T04:06:36.299Z,4.60
2022-10-19T04:09:05.090Z,4.00
2022-10-19T04:11:33.844Z,5.57
2022-10-19T04:14:01.251Z,4.20
2022-10-19T04:16:30.159Z,3.87
2022-10-19T04:18:57.582Z,4.10
2022-10-19T04:21:30.031Z,4.93
2022-10-19T04:24:06.032Z,3.87
2022-10-19T04:26:34.020Z,3.90
2022-10-19T04:29:01.972Z,4.43
2022-10-19T04:31:29.168Z,3.80
2022-10-19T04:33:57.411Z,4.27
2022-10-19T04:36:24.464Z,4.50
2022-10-19T04:38:51.432Z,5.30
2022-10-19T04:41:22.286Z,4.23
2022-10-19T04:43:49.527Z,4.27
2022-10-19T04:46:19.627Z,4.03
2022-10-19T04:48:49.297Z,3.53
2022-10-19T04:51:16.982Z,6.30
2022-10-19T04:53:44.644Z,4.43
2022-10-19T04:56:17.829Z,5.03
2022-10-19T04:58:45.449Z,4.00
2022-10-19T05:01:22.726Z,3.30
2022-10-19T05:06:22.119Z,3.27
2022-10-19T05:08:50.226Z,4.17
2022-10-19T05:11:17.817Z,3.77
2022-10-19T05:13:46.167Z,3.47
2022-10-19T05:16:16.032Z,3.73
2022-10-19T05:18:43.094Z,4.30
2022-10-19T05:21:12.162Z,4.80
2022-10-19T05:23:40.857Z,5.07
2022-10-19T05:26:13.409Z,5.13
2022-10-19T05:28:40.549Z,6.67
2022-10-19T05:31:15.957Z,3.93
2022-10-19T05:33:43.664Z,3.80
2022-10-19T05:36:21.101Z,4.03
2022-10-19T05:38:53.002Z,6.07
2022-10-19T05:41:22.328Z,5.13
2022-10-19T05:43:57.098Z,5.13
2022-10-19T05:46:25.869Z,4.20
2022-10-19T05:48:52.603Z,3.97
2022-10-19T05:51:21.373Z,5.87
2022-10-19T05:53:49.608Z,6.47
2022-10-19T05:56:19.967Z,6.47
2022-10-19T05:58:47.828Z,7.30
2022-10-19T06:01:20.144Z,6.90
2022-10-19T06:03:51.044Z,6.03
2022-10-19T06:06:17.992Z,6.73
2022-10-19T06:08:47.073Z,6.00
2022-10-19T06:11:35.217Z,8.67
2022-10-19T06:14:05.688Z,8.53
2022-10-19T06:16:40.179Z,8.53
2022-10-19T06:19:07.233Z,9.87
2022-10-19T06:21:34.870Z,7.17
2022-10-19T06:24:04.833Z,6.77
2022-10-19T06:26:33.739Z,6.90
2022-10-19T06:29:02.346Z,6.83
2022-10-19T06:31:37.133Z,6.30
2022-10-19T06:34:04.753Z,5.00
2022-10-19T06:36:32.546Z,5.57
2022-10-19T06:39:02.002Z,5.30
2022-10-19T06:41:31.607Z,5.10
2022-10-19T06:43:58.495Z,6.20
2022-10-19T06:46:26.939Z,5.90
2022-10-19T06:49:01.316Z,13.33
2022-10-19T06:51:30.526Z,13.60
2022-10-19T06:53:57.729Z,11.90
2022-10-19T06:56:25.854Z,11.33
2022-10-19T06:58:53.342Z,7.57
2022-10-19T07:01:20.372Z,9.20
2022-10-19T07:03:47.439Z,9.23
2022-10-19T07:06:15.674Z,7.83
2022-10-19T07:08:43.262Z,7.80
2022-10-19T07:11:14.948Z,6.47
2022-10-19T07:13:41.776Z,7.83
2022-10-19T07:16:15.886Z,7.27
2022-10-19T07:18:46.711Z,7.37
2022-10-19T07:21:15.664Z,7.23
2022-10-19T07:23:44.209Z,8.33
2022-10-19T07:26:33.737Z,8.67
2022-10-19T07:29:00.630Z,8.70
2022-10-19T07:31:29.606Z,8.07
2022-10-19T07:33:59.173Z,8.53
2022-10-19T07:36:27.430Z,8.87
2022-10-19T07:38:54.296Z,9.07
2022-10-19T07:41:26.195Z,9.83
2022-10-19T07:43:54.084Z,9.10
2022-10-19T07:46:24.078Z,9.77
2022-10-19T07:48:57.125Z,9.47
2022-10-19T07:51:23.959Z,10.33
2022-10-19T07:53:51.223Z,8.60
2022-10-19T07:56:23.732Z,8.60
2022-10-19T07:58:52.516Z,7.83
2022-10-19T08:01:41.739Z,8.23
2022-10-19T08:06:55.755Z,8.90
2022-10-19T08:09:51.007Z,9.80
2022-10-19T08:12:14.862Z,9.10
2022-10-19T08:14:42.273Z,10.03
2022-10-19T08:17:16.796Z,9.27
2022-10-19T08:19:45.201Z,9.03
2022-10-19T08:22:12.076Z,10.20
2022-10-19T08:24:39.130Z,12.00
2022-10-19T08:27:05.897Z,11.07
2022-10-19T08:29:32.909Z,10.50
2022-10-19T08:31:59.956Z,10.07
2022-10-19T08:34:27.709Z,9.73
2022-10-19T08:36:54.475Z,8.67
2022-10-19T08:39:21.490Z,8.90
2022-10-19T08:42:10.910Z,8.30
2022-10-19T08:45:21.394Z,8.57
2022-10-19T08:48:18.932Z,7.90
2022-10-19T08:50:50.376Z,7.70
2022-10-19T08:53:22.600Z,8.37
2022-10-19T08:56:22.079Z,8.63
2022-10-19T08:59:44.207Z,7.57
2022-10-19T09:02:35.553Z,7.63
2022-10-19T09:05:30.956Z,7.73
2022-10-19T09:07:58.455Z,7.10
2022-10-19T09:10:37.519Z,7.23
2022-10-19T09:14:03.806Z,6.50
2022-10-19T09:16:30.611Z,6.70
2022-10-19T09:18:58.380Z,6.20
2022-10-19T09:21:47.272Z,6.07
2022-10-19T09:24:26.610Z,6.80
2022-10-19T09:26:56.636Z,6.47
2022-10-19T09:29:39.279Z,6.80
2022-10-19T09:32:14.502Z,7.70
2022-10-19T09:34:46.788Z,8.33
2022-10-19T09:37:21.225Z,9.43
2022-10-19T09:39:54.099Z,7.27
2022-10-19T09:42:24.817Z,7.10
2022-10-19T09:44:54.700Z,7.00
2022-10-19T09:47:34.227Z,8.23
2022-10-19T09:50:15.383Z,7.67
2022-10-19T09:52:45.149Z,7.93
2022-10-19T09:55:20.019Z,7.33
2022-10-19T09:57:50.080Z,7.40
2022-10-19T10:00:26.156Z,7.43
2022-10-19T10:02:55.896Z,7.43
2022-10-19T10:05:31.249Z,7.43
2022-10-19T10:08:00.654Z,7.80
2022-10-19T10:10:32.578Z,7.50
2022-10-19T10:13:02.539Z,8.20
2022-10-19T10:15:36.406Z,7.27
2022-10-19T10:18:03.889Z,7.70
2022-10-19T10:20:35.742Z,7.93
2022-10-19T10:23:05.396Z,8.03
2022-10-19T10:25:38.667Z,7.33
2022-10-19T10:28:20.954Z,7.53
2022-10-19T10:30:49.651Z,7.93
2022-10-19T10:33:33.384Z,7.07
2022-10-19T10:36:11.483Z,7.50
2022-10-19T10:38:50.569Z,6.80
2022-10-19T10:41:23.192Z,6.43
2022-10-19T10:43:59.610Z,6.50
2022-10-19T10:46:39.435Z,6.20
2022-10-19T10:49:15.262Z,6.60
2022-10-19T10:51:52.902Z,5.70
2022-10-19T10:54:33.430Z,6.20
2022-10-19T10:57:14.126Z,6.37
2022-10-19T10:59:56.293Z,5.90
2022-10-19T11:02:35.179Z,6.27
2022-10-19T11:05:12.333Z,6.17
2022-10-19T11:07:44.972Z,6.43
2022-10-19T11:10:23.774Z,5.97
2022-10-19T11:13:21.003Z,5.30
2022-10-19T11:16:05.268Z,5.60
2022-10-19T11:18:41.272Z,5.47
2022-10-19T11:21:13.252Z,5.40
2022-10-19T11:23:39.954Z,6.20
2022-10-19T11:26:30.962Z,5.37
2022-10-19T11:29:27.942Z,5.20
2022-10-19T11:31:57.033Z,5.63
2022-10-19T11:35:08.886Z,5.37
2022-10-19T11:38:18.693Z,5.50
2022-10-19T11:41:17.251Z,5.43
2022-10-19T11:44:07.084Z,5.73
2022-10-19T11:46:42.897Z,5.60
2022-10-19T11:49:09.774Z,5.50
2022-10-19T11:52:07.547Z,5.33
2022-10-19T11:54:59.273Z,5.80
2022-10-19T11:57:41.221Z,5.20
2022-10-19T12:00:38.197Z,5.73
2022-10-19T12:04:03.108Z,5.17
2022-10-19T12:06:38.402Z,5.20
2022-10-19T12:09:38.465Z,4.70
2022-10-19T12:12:50.755Z,4.70
2022-10-19T12:15:28.739Z,4.00
2022-10-19T12:18:01.542Z,3.87
2022-10-19T12:20:38.535Z,4.33
2022-10-19T12:23:23.110Z,3.97
2022-10-19T12:25:51.181Z,4.17
2022-10-19T12:28:25.240Z,4.20
2022-10-19T12:30:53.103Z,3.90
2022-10-19T12:33:47.392Z,3.73
2022-10-19T12:36:26.442Z,4.53
2022-10-19T12:39:00.025Z,3.77
2022-10-19T12:42:00.938Z,3.80
2022-10-19T12:44:43.704Z,4.60
2022-10-19T12:47:15.985Z,4.23
2022-10-19T12:49:55.158Z,3.97
2022-10-19T12:52:49.146Z,4.37
2022-10-19T12:55:15.829Z,3.90
2022-10-19T12:57:50.936Z,4.23
2022-10-19T13:00:25.433Z,4.17
2022-10-19T13:03:03.984Z,3.87
2022-10-19T13:05:34.226Z,4.07
2022-10-19T13:08:06.909Z,3.60
2022-10-19T13:10:36.721Z,3.30
2022-10-19T13:13:03.487Z,3.70
2022-10-19T13:15:36.434Z,3.10
2022-10-19T13:18:11.470Z,3.47
2022-10-19T13:23:05.288Z,3.13
2022-10-19T13:25:42.789Z,3.20
2022-10-19T13:28:09.675Z,3.13
2022-10-19T13:30:36.575Z,3.27
2022-10-19T13:33:25.459Z,2.90
2022-10-19T13:36:06.628Z,3.23
2022-10-19T13:38:38.954Z,2.90
2022-10-19T13:41:25.682Z,3.20
2022-10-19T13:44:22.020Z,3.50
2022-10-19T13:47:01.798Z,2.70
2022-10-19T13:49:53.705Z,2.77
2022-10-19T13:53:10.842Z,2.80
2022-10-19T13:56:18.897Z,3.47
2022-10-19T13:59:10.851Z,2.83
2022-10-19T14:02:02.786Z,2.97
2022-10-19T14:05:09.854Z,2.90
2022-10-19T14:08:03.979Z,2.80
2022-10-19T14:10:33.090Z,2.90
2022-10-19T14:13:18.012Z,2.87
2022-10-19T14:15:53.768Z,2.90
2022-10-19T14:18:28.027Z,3.07
2022-10-19T14:21:04.293Z,3.20
2022-10-19T14:23:40.209Z,2.87
2022-10-19T14:26:18.092Z,3.07
2022-10-19T14:28:44.890Z,2.93
2022-10-19T14:31:21.884Z,3.20
2022-10-19T14:33:55.403Z,3.20
2022-10-19T14:36:28.262Z,3.27
2022-10-19T14:38:59.802Z,2.67
2022-10-19T14:41:31.364Z,2.70
2022-10-19T14:43:59.921Z,2.97
2022-10-19T14:46:31.945Z,3.10
2022-10-19T14:49:04.611Z,2.70
2022-10-19T14:51:50.133Z,2.73
2022-10-19T14:54:36.803Z,2.63
2022-10-19T14:57:15.817Z,2.47
2022-10-19T15:00:04.514Z,2.30
2022-10-19T15:02:34.814Z,2.20
2022-10-19T15:05:05.202Z,2.40
2022-10-19T15:07:41.352Z,2.60
2022-10-19T15:10:34.946Z,3.50
2022-10-19T15:13:06.442Z,2.83
2022-10-19T15:15:43.464Z,2.43
2022-10-19T15:18:43.494Z,2.33
2022-10-19T15:21:14.518Z,2.43
2022-10-19T15:23:46.230Z,3.90
2022-10-19T15:26:24.654Z,3.40
2022-10-19T15:28:51.776Z,3.53
2022-10-19T15:31:26.867Z,2.60
2022-10-19T15:33:56.930Z,3.13
2022-10-19T15:36:25.126Z,3.57
2022-10-19T15:39:06.322Z,3.60
2022-10-19T15:41:45.266Z,3.07
2022-10-19T15:44:42.739Z,3.30
2022-10-19T15:47:28.122Z,3.07
2022-10-19T15:50:25.563Z,3.33
2022-10-19T15:52:52.268Z,3.93
2022-10-19T15:55:19.018Z,4.50
2022-10-19T15:57:48.462Z,6.50
2022-10-19T16:00:17.907Z,5.60
2022-10-19T16:02:45.085Z,4.90
2022-10-19T16:05:11.848Z,5.40
2022-10-19T16:07:40.597Z,5.27
2022-10-19T16:10:12.181Z,4.13
2022-10-19T16:12:39.046Z,4.90
2022-10-19T16:15:06.391Z,6.17
2022-10-19T16:17:33.694Z,6.07
2022-10-19T16:20:00.640Z,5.50
2022-10-19T16:22:27.511Z,5.90
2022-10-19T16:24:54.255Z,8.07
2022-10-19T16:27:21.085Z,9.63
2022-10-19T16:29:47.913Z,12.90
2022-10-19T16:32:14.977Z,42.67
2022-10-19T16:34:41.767Z,39.43
2022-10-19T16:37:08.565Z,11.70
2022-10-19T16:39:35.346Z,11.97
2022-10-19T16:42:02.145Z,8.13
2022-10-19T16:44:30.410Z,7.53
2022-10-19T16:46:58.318Z,8.10
2022-10-19T16:49:25.763Z,21.47
2022-10-19T16:51:56.259Z,18.57
2022-10-19T16:54:26.370Z,19.80
2022-10-19T16:56:53.364Z,16.60
2022-10-19T16:59:20.150Z,10.57
2022-10-19T17:01:47.531Z,16.13
2022-10-19T17:04:18.079Z,13.27
2022-10-19T17:06:45.843Z,17.07
2022-10-19T17:09:40.323Z,16.83
2022-10-19T17:12:00.721Z,11.63
2022-10-19T17:14:30.502Z,13.87
2022-10-19T17:16:57.264Z,21.47
2022-10-19T17:19:27.001Z,16.23
2022-10-19T17:21:58.410Z,23.70
2022-10-19T17:24:25.823Z,21.83
2022-10-19T17:26:53.426Z,22.57
2022-10-19T17:29:24.011Z,15.40
2022-10-19T17:31:50.921Z,18.60
2022-10-19T17:34:18.740Z,15.77
2022-10-19T17:36:46.957Z,12.63
2022-10-19T17:39:18.415Z,38.90
2022-10-19T17:41:46.937Z,28.27
2022-10-19T17:44:14.104Z,17.67
2022-10-19T17:46:40.927Z,14.73
2022-10-19T17:49:07.798Z,28.63
2022-10-19T17:51:36.736Z,32.47
2022-10-19T17:54:14.615Z,19.30
2022-10-19T17:56:46.960Z,17.87
2022-10-19T17:59:13.963Z,19.37
2022-10-19T18:01:41.026Z,35.00
2022-10-19T18:04:07.918Z,18.07
2022-10-19T18:06:37.807Z,13.57
2022-10-19T18:09:08.616Z,21.50
2022-10-19T18:11:39.242Z,99.50
2022-10-19T18:14:08.229Z,29.37
2022-10-19T18:16:48.905Z,25.63
2022-10-19T18:19:16.968Z,83.77
2022-10-19T18:21:46.794Z,67.13
2022-10-19T18:24:19.592Z,19.27
2022-10-19T18:26:47.196Z,15.23
2022-10-19T18:29:17.881Z,64.57
2022-10-19T18:31:51.076Z,30.00
2022-10-19T18:34:38.405Z,11.17
2022-10-19T18:37:05.665Z,10.03
2022-10-19T18:39:32.474Z,10.60
2022-10-19T18:41:59.443Z,11.23
2022-10-19T18:44:29.533Z,11.77
2022-10-19T18:46:58.427Z,13.47
2022-10-19T18:49:25.567Z,11.70
2022-10-19T18:51:55.778Z,10.17
2022-10-19T18:54:24.862Z,11.60
2022-10-19T18:56:51.670Z,11.33
2022-10-19T18:59:19.110Z,9.93
2022-10-19T19:01:46.282Z,9.67
2022-10-19T19:04:13.177Z,10.37
2022-10-19T19:06:40.185Z,9.50
2022-10-19T19:09:10.801Z,10.03
2022-10-19T19:11:41.304Z,10.23
2022-10-19T19:14:12.588Z,10.50
2022-10-19T19:16:41.361Z,10.57
2022-10-19T19:19:10.023Z,9.87
2022-10-19T19:21:37.211Z,10.57
2022-10-19T19:24:06.809Z,10.87
2022-10-19T19:26:37.801Z,12.83
2022-10-19T19:29:04.778Z,20.50
2022-10-19T19:31:31.623Z,23.43
2022-10-19T19:34:01.141Z,26.23
2022-10-19T19:36:28.647Z,17.27
2022-10-19T19:38:56.755Z,12.27
2022-10-19T19:41:24.063Z,9.90
2022-10-19T19:43:50.858Z,11.10
2022-10-19T19:46:19.270Z,9.90
2022-10-19T19:48:47.985Z,11.03
2022-10-19T19:51:21.408Z,11.73
2022-10-19T19:53:48.658Z,12.03
2022-10-19T19:56:16.333Z,12.73
2022-10-19T19:58:45.284Z,15.20
2022-10-19T20:01:18.270Z,12.73
2022-10-19T20:03:46.166Z,12.07
2022-10-19T20:06:20.729Z,12.33
2022-10-19T20:08:50.615Z,12.57
2022-10-19T20:11:17.858Z,11.10
2022-10-19T20:13:45.828Z,11.43
2022-10-19T20:16:22.717Z,10.60
2022-10-19T20:18:55.429Z,10.43
2022-10-19T20:21:24.684Z,10.53
2022-10-19T20:23:51.659Z,10.13
2022-10-19T20:26:20.654Z,11.03
2022-10-19T20:28:48.240Z,10.37
2022-10-19T20:31:16.068Z,10.53
2022-10-19T20:33:47.658Z,10.53
2022-10-19T20:36:23.529Z,10.27
2022-10-19T20:38:59.667Z,11.30
2022-10-19T20:41:28.324Z,10.87
2022-10-19T20:43:56.582Z,10.67
2022-10-19T20:46:28.331Z,10.67
2022-10-19T20:48:56.985Z,10.97
2022-10-19T20:51:32.626Z,10.17
2022-10-19T20:54:02.120Z,10.30
2022-10-19T20:56:34.229Z,10.00
2022-10-19T20:59:06.345Z,10.37
2022-10-19T21:01:36.808Z,10.67
2022-10-19T21:04:08.964Z,10.90
2022-10-19T21:06:40.184Z,10.90
2022-10-19T21:09:08.982Z,11.00
2022-10-19T21:11:41.592Z,10.73
2022-10-19T21:14:23.689Z,11.83
2022-10-19T21:16:54.058Z,12.40
2022-10-19T21:19:25.587Z,11.27
2022-10-19T21:21:59.549Z,12.67
2022-10-19T21:24:37.837Z,11.33
2022-10-19T21:27:07.723Z,12.70
2022-10-19T21:29:35.123Z,12.33
2022-10-19T21:32:02.064Z,12.43
2022-10-19T21:34:31.026Z,13.10
2022-10-19T21:36:58.781Z,11.83
2022-10-19T21:39:25.620Z,11.23
2022-10-19T21:41:52.441Z,12.47
2022-10-19T21:44:26.099Z,12.53
2022-10-19T21:46:52.900Z,12.20
2022-10-19T21:49:20.075Z,16.07
2022-10-19T21:51:56.380Z,18.67
2022-10-19T21:54:25.311Z,14.87
2022-10-19T21:56:53.786Z,19.43
2022-10-19T21:59:20.575Z,19.10
2022-10-19T22:01:47.856Z,16.53
2022-10-19T22:04:18.232Z,15.13
2022-10-19T22:06:45.360Z,13.53
2022-10-19T22:09:15.991Z,13.60
2022-10-19T22:11:43.892Z,12.47
2022-10-19T22:14:12.483Z,12.83
2022-10-19T22:16:42.758Z,13.00
2022-10-19T22:19:10.166Z,12.47
2022-10-19T22:24:09.455Z,11.90
2022-10-19T22:26:40.256Z,13.17
2022-10-19T22:29:07.802Z,11.77
2022-10-19T22:31:36.890Z,12.00
2022-10-19T22:34:09.845Z,11.60
2022-10-19T22:36:36.640Z,11.87
2022-10-19T22:39:05.250Z,12.37
2022-10-19T22:41:32.264Z,11.97
2022-10-19T22:44:02.024Z,12.10
2022-10-19T22:46:28.758Z,11.63
2022-10-19T22:48:55.739Z,11.47
2022-10-19T22:51:22.596Z,11.43
2022-10-19T22:53:50.292Z,10.77
2022-10-19T22:56:17.239Z,11.57
2022-10-19T22:58:46.069Z,10.93
2022-10-19T23:01:18.691Z,11.43
2022-10-19T23:03:45.479Z,11.63
2022-10-19T23:06:15.390Z,11.53
2022-10-19T23:08:44.175Z,10.80
2022-10-19T23:11:11.795Z,11.03
2022-10-19T23:13:38.976Z,10.40
2022-10-19T23:16:06.666Z,10.73
2022-10-19T23:18:35.131Z,10.60
2022-10-19T23:21:04.405Z,10.53
2022-10-19T23:23:41.802Z,11.30
2022-10-19T23:26:17.000Z,11.13
2022-10-19T23:28:46.429Z,10.20
2022-10-19T23:31:16.275Z,11.40
2022-10-19T23:33:43.967Z,10.30
2022-10-19T23:36:15.620Z,10.47
2022-10-19T23:38:46.872Z,10.70
2022-10-19T23:41:14.277Z,10.13
2022-10-19T23:43:41.193Z,10.90
2022-10-19T23:46:08.953Z,11.13
2022-10-19T23:48:36.033Z,10.77
2022-10-19T23:51:09.381Z,10.40
2022-10-19T23:53:40.744Z,11.00
2022-10-19T23:56:12.646Z,10.73
2022-10-19T23:58:39.521Z,10.20
